createdAt,value
2022-08-24T00:00:59.098Z,86.28
2022-08-24T00:03:25.590Z,86.36
2022-08-24T00:05:51.830Z,86.30
2022-08-24T00:08:18.257Z,86.87
2022-08-24T00:10:44.621Z,87.62
2022-08-24T00:13:10.988Z,88.27
2022-08-24T00:15:37.383Z,88.60
2022-08-24T00:18:04.108Z,88.68
2022-08-24T00:20:30.353Z,88.73
2022-08-24T00:22:56.733Z,88.68
2022-08-24T00:25:23.099Z,88.74
2022-08-24T00:27:49.513Z,88.62
2022-08-24T00:30:15.898Z,88.76
2022-08-24T00:32:42.314Z,88.95
2022-08-24T00:35:08.742Z,89.48
2022-08-24T00:37:35.183Z,89.70
2022-08-24T00:40:01.648Z,89.74
2022-08-24T00:42:27.944Z,89.93
2022-08-24T00:44:54.328Z,89.91
2022-08-24T00:47:20.717Z,89.60
2022-08-24T00:49:47.100Z,88.83
2022-08-24T00:52:13.504Z,88.18
2022-08-24T00:54:45.929Z,87.69
2022-08-24T00:57:06.339Z,87.45
2022-08-24T00:59:32.744Z,87.79
2022-08-24T01:01:59.216Z,88.45
2022-08-24T01:04:25.518Z,88.30
2022-08-24T01:06:51.904Z,88.24
2022-08-24T01:09:18.271Z,87.74
2022-08-24T01:11:44.670Z,87.63
2022-08-24T01:14:11.062Z,87.70
2022-08-24T01:16:37.496Z,87.51
2022-08-24T01:19:03.926Z,87.62
2022-08-24T01:21:30.360Z,87.87
2022-08-24T01:23:56.744Z,88.28
2022-08-24T01:26:23.119Z,88.32
2022-08-24T01:28:49.555Z,88.51
2022-08-24T01:31:15.966Z,88.59
2022-08-24T01:33:42.422Z,88.55
2022-08-24T01:36:08.855Z,88.54
2022-08-24T01:38:35.290Z,88.51
2022-08-24T01:41:01.724Z,88.67
2022-08-24T01:43:28.142Z,89.90
2022-08-24T01:45:54.587Z,90.73
2022-08-24T01:48:22.746Z,90.78
2022-08-24T01:50:47.355Z,91.01
2022-08-24T01:53:13.745Z,90.85
2022-08-24T01:55:40.132Z,90.30
2022-08-24T01:58:06.531Z,89.87
2022-08-24T02:00:32.921Z,89.62
2022-08-24T02:02:59.405Z,89.56
2022-08-24T02:05:25.668Z,89.69
2022-08-24T02:07:52.031Z,89.72
2022-08-24T02:10:18.510Z,89.82
2022-08-24T02:12:44.874Z,89.83
2022-08-24T02:15:11.273Z,89.75
2022-08-24T02:17:37.679Z,89.76
2022-08-24T02:20:04.052Z,89.72
2022-08-24T02:22:30.437Z,89.78
2022-08-24T02:24:56.808Z,89.80
2022-08-24T02:27:23.190Z,89.87
2022-08-24T02:29:49.586Z,90.25
2022-08-24T02:32:15.971Z,90.42
2022-08-24T02:34:42.336Z,90.65
2022-08-24T02:37:08.759Z,90.94
2022-08-24T02:39:35.194Z,91.01
2022-08-24T02:42:01.556Z,91.18
2022-08-24T02:44:27.960Z,91.62
2022-08-24T02:46:54.382Z,91.98
2022-08-24T02:49:20.827Z,92.65
2022-08-24T02:51:47.258Z,92.83
2022-08-24T02:54:13.654Z,92.50
2022-08-24T02:56:40.022Z,92.36
2022-08-24T02:59:06.452Z,92.23
2022-08-24T03:01:32.969Z,92.35
2022-08-24T03:03:59.312Z,92.84
2022-08-24T03:06:25.757Z,93.83
2022-08-24T03:08:56.204Z,94.41
2022-08-24T03:11:18.503Z,95.28
2022-08-24T03:13:44.946Z,95.92
2022-08-24T03:16:11.330Z,96.08
2022-08-24T03:18:37.713Z,96.43
2022-08-24T03:21:04.139Z,96.46
2022-08-24T03:23:31.983Z,96.12
2022-08-24T03:25:56.980Z,96.51
2022-08-24T03:28:23.441Z,96.71
2022-08-24T03:30:49.912Z,96.29
2022-08-24T03:33:16.313Z,95.78
2022-08-24T03:35:42.671Z,95.54
2022-08-24T03:38:09.075Z,95.18
2022-08-24T03:40:35.522Z,94.62
2022-08-24T03:43:01.960Z,94.67
2022-08-24T03:45:28.242Z,94.79
2022-08-24T03:47:54.609Z,95.01
2022-08-24T03:50:20.995Z,95.08
2022-08-24T03:52:47.371Z,95.12
2022-08-24T03:55:13.748Z,94.72
2022-08-24T03:57:40.232Z,94.43
2022-08-24T04:00:06.660Z,94.23
2022-08-24T04:02:33.240Z,94.06
2022-08-24T04:04:59.503Z,93.71
2022-08-24T04:07:25.876Z,93.57
2022-08-24T04:09:52.299Z,93.40
2022-08-24T04:12:18.721Z,93.49
2022-08-24T04:14:45.088Z,93.58
2022-08-24T04:17:11.459Z,93.52
2022-08-24T04:19:37.847Z,93.50
2022-08-24T04:22:04.255Z,93.34
2022-08-24T04:24:30.626Z,93.25
2022-08-24T04:26:57.024Z,93.31
2022-08-24T04:29:23.624Z,93.38
2022-08-24T04:31:50.127Z,93.39
2022-08-24T04:34:16.534Z,93.54
2022-08-24T04:36:42.909Z,93.48
2022-08-24T04:39:09.753Z,93.43
2022-08-24T04:41:36.139Z,93.24
2022-08-24T04:44:02.492Z,93.45
2022-08-24T04:46:28.896Z,92.58
2022-08-24T04:48:55.334Z,91.96
2022-08-24T04:51:21.718Z,91.01
2022-08-24T04:53:48.115Z,90.14
2022-08-24T04:56:14.500Z,89.50
2022-08-24T04:58:40.961Z,88.95
2022-08-24T05:01:07.437Z,88.09
2022-08-24T05:03:33.747Z,87.66
2022-08-24T05:06:00.146Z,87.12
2022-08-24T05:08:26.566Z,87.04
2022-08-24T05:10:52.954Z,87.33
2022-08-24T05:13:19.331Z,87.21
2022-08-24T05:15:45.717Z,86.78
2022-08-24T05:18:12.076Z,86.80
2022-08-24T05:20:38.490Z,86.59
2022-08-24T05:23:04.988Z,86.30
2022-08-24T05:25:31.416Z,86.07
2022-08-24T05:27:57.787Z,85.62
2022-08-24T05:30:24.218Z,85.51
2022-08-24T05:32:50.711Z,85.29
2022-08-24T05:35:17.146Z,84.85
2022-08-24T05:37:43.553Z,84.43
2022-08-24T05:40:10.190Z,83.83
2022-08-24T05:42:36.547Z,83.33
2022-08-24T05:45:02.920Z,82.50
2022-08-24T05:47:29.282Z,81.92
2022-08-24T05:49:55.662Z,81.54
2022-08-24T05:52:22.052Z,81.19
2022-08-24T05:54:48.500Z,80.39
2022-08-24T05:57:14.940Z,79.99
2022-08-24T05:59:41.304Z,79.62
2022-08-24T06:02:07.782Z,79.29
2022-08-24T06:04:34.079Z,79.02
2022-08-24T06:07:00.441Z,78.56
2022-08-24T06:09:26.838Z,77.45
2022-08-24T06:11:53.482Z,76.52
2022-08-24T06:14:23.889Z,73.94
2022-08-24T06:16:46.357Z,73.23
2022-08-24T06:19:12.696Z,71.85
2022-08-24T06:21:39.061Z,71.41
2022-08-24T06:24:05.498Z,70.32
2022-08-24T06:26:31.902Z,69.86
2022-08-24T06:28:58.276Z,69.33
2022-08-24T06:31:24.727Z,68.77
2022-08-24T06:33:51.039Z,68.38
2022-08-24T06:36:17.419Z,67.57
2022-08-24T06:38:45.464Z,66.68
2022-08-24T06:41:10.486Z,65.97
2022-08-24T06:43:36.882Z,65.54
2022-08-24T06:46:03.281Z,64.90
2022-08-24T06:48:29.638Z,63.40
2022-08-24T06:50:56.065Z,62.12
2022-08-24T06:53:22.472Z,61.15
2022-08-24T06:55:48.845Z,60.73
2022-08-24T06:58:15.218Z,59.63
2022-08-24T07:00:41.607Z,58.71
2022-08-24T07:03:08.062Z,58.29
2022-08-24T07:05:34.451Z,57.98
2022-08-24T07:08:00.886Z,57.54
2022-08-24T07:10:28.004Z,57.25
2022-08-24T07:12:53.618Z,56.91
2022-08-24T07:15:20.038Z,56.42
2022-08-24T07:17:46.403Z,55.78
2022-08-24T07:20:12.780Z,55.92
2022-08-24T07:22:39.212Z,55.52
2022-08-24T07:25:05.585Z,55.01
2022-08-24T07:27:31.959Z,54.65
2022-08-24T07:30:23.212Z,54.49
2022-08-24T07:32:24.764Z,54.31
2022-08-24T07:34:51.240Z,54.36
2022-08-24T07:37:17.633Z,53.67
2022-08-24T07:39:44.067Z,52.95
2022-08-24T07:42:18.861Z,51.92
2022-08-24T07:44:36.808Z,51.30
2022-08-24T07:47:15.423Z,50.90
2022-08-24T07:49:36.864Z,50.26
2022-08-24T07:51:55.909Z,50.10
2022-08-24T07:54:22.297Z,49.92
2022-08-24T07:56:48.681Z,49.75
2022-08-24T07:59:15.059Z,49.71
2022-08-24T08:01:41.561Z,49.75
2022-08-24T08:04:07.922Z,49.58
2022-08-24T08:06:34.286Z,49.74
2022-08-24T08:09:00.791Z,49.78
2022-08-24T08:11:27.164Z,49.83
2022-08-24T08:13:53.593Z,49.50
2022-08-24T08:16:20.019Z,48.66
2022-08-24T08:18:52.015Z,48.08
2022-08-24T08:21:14.261Z,47.49
2022-08-24T08:23:39.185Z,47.12
2022-08-24T08:26:05.574Z,46.88
2022-08-24T08:28:35.575Z,46.81
2022-08-24T08:30:58.439Z,46.30
2022-08-24T08:33:24.737Z,45.94
2022-08-24T08:35:51.144Z,45.76
2022-08-24T08:38:17.512Z,45.76
2022-08-24T08:40:43.909Z,45.89
2022-08-24T08:43:10.326Z,45.97
2022-08-24T08:45:36.721Z,45.84
2022-08-24T08:50:29.468Z,45.73
2022-08-24T08:52:55.857Z,45.32
2022-08-24T08:55:22.241Z,45.29
2022-08-24T08:57:48.637Z,45.31
2022-08-24T09:00:15.701Z,44.73
2022-08-24T09:02:41.498Z,44.75
2022-08-24T09:05:07.902Z,44.68
2022-08-24T09:07:34.295Z,43.73
2022-08-24T09:10:00.683Z,43.59
2022-08-24T09:12:27.059Z,44.17
2022-08-24T09:14:53.564Z,43.93
2022-08-24T09:17:19.997Z,43.09
2022-08-24T09:19:46.323Z,42.45
2022-08-24T09:22:12.713Z,43.42
2022-08-24T09:24:39.089Z,43.00
2022-08-24T09:27:05.524Z,42.71
2022-08-24T09:29:31.895Z,42.82
2022-08-24T09:31:58.283Z,43.40
2022-08-24T09:34:24.699Z,43.25
2022-08-24T09:36:51.115Z,42.72
2022-08-24T09:39:17.483Z,42.31
2022-08-24T09:41:43.874Z,41.61
2022-08-24T09:44:10.282Z,42.06
2022-08-24T09:46:36.678Z,42.19
2022-08-24T09:49:03.110Z,42.66
2022-08-24T09:51:29.492Z,42.22
2022-08-24T09:53:55.899Z,42.28
2022-08-24T09:56:22.306Z,42.55
2022-08-24T09:58:48.695Z,42.45
2022-08-24T10:01:15.226Z,42.82
2022-08-24T10:03:41.560Z,42.92
2022-08-24T10:06:08.036Z,42.68
2022-08-24T10:08:34.348Z,42.16
2022-08-24T10:11:01.743Z,42.42
2022-08-24T10:13:28.140Z,42.02
2022-08-24T10:15:54.585Z,41.69
2022-08-24T10:18:21.024Z,40.75
2022-08-24T10:20:50.323Z,39.97
2022-08-24T10:23:16.723Z,40.20
2022-08-24T10:25:43.103Z,40.32
2022-08-24T10:28:09.477Z,39.70
2022-08-24T10:30:35.850Z,40.49
2022-08-24T10:33:02.226Z,40.99
2022-08-24T10:35:28.590Z,41.30
2022-08-24T10:37:54.961Z,41.61
2022-08-24T10:40:21.392Z,41.97
2022-08-24T10:42:47.770Z,41.75
2022-08-24T10:45:14.150Z,42.40
2022-08-24T10:47:40.542Z,42.91
2022-08-24T10:50:07.007Z,43.03
2022-08-24T10:52:33.448Z,42.98
2022-08-24T10:54:59.830Z,43.22
2022-08-24T10:57:26.198Z,43.00
2022-08-24T10:59:53.154Z,43.02
2022-08-24T11:02:18.983Z,43.18
2022-08-24T11:04:45.330Z,43.38
2022-08-24T11:07:11.715Z,43.07
2022-08-24T11:09:38.217Z,43.17
2022-08-24T11:12:04.599Z,42.81
2022-08-24T11:14:30.975Z,43.07
2022-08-24T11:16:58.122Z,42.90
2022-08-24T11:19:23.772Z,41.86
2022-08-24T11:21:50.132Z,42.39
2022-08-24T11:24:16.565Z,42.41
2022-08-24T11:26:42.947Z,41.77
2022-08-24T11:29:09.329Z,41.79
2022-08-24T11:31:36.207Z,42.71
2022-08-24T11:34:02.089Z,42.82
2022-08-24T11:36:28.500Z,43.01
2022-08-24T11:38:54.896Z,43.16
2022-08-24T11:41:21.275Z,43.45
2022-08-24T11:43:47.867Z,43.76
2022-08-24T11:46:14.296Z,44.36
2022-08-24T11:48:40.626Z,44.43
2022-08-24T11:51:07.124Z,43.86
2022-08-24T11:53:33.575Z,43.75
2022-08-24T11:56:00.284Z,43.69
2022-08-24T11:58:26.592Z,43.73
2022-08-24T12:00:53.059Z,43.54
2022-08-24T12:03:19.505Z,44.04
2022-08-24T12:05:45.923Z,43.89
2022-08-24T12:08:12.338Z,44.06
2022-08-24T12:10:38.787Z,44.10
2022-08-24T12:13:05.151Z,44.60
2022-08-24T12:15:31.521Z,44.25
2022-08-24T12:17:58.003Z,43.78
2022-08-24T12:20:24.304Z,43.92
2022-08-24T12:22:50.675Z,44.01
2022-08-24T12:25:17.180Z,43.93
2022-08-24T12:27:43.629Z,44.01
2022-08-24T12:30:10.091Z,44.24
2022-08-24T12:32:36.437Z,44.69
2022-08-24T12:35:02.956Z,44.93
2022-08-24T12:37:29.360Z,45.12
2022-08-24T12:39:55.767Z,45.58
2022-08-24T12:42:22.125Z,45.44
2022-08-24T12:44:48.529Z,45.42
2022-08-24T12:47:14.908Z,45.73
2022-08-24T12:49:41.321Z,45.70
2022-08-24T12:52:07.698Z,45.74
2022-08-24T12:54:34.157Z,45.87
2022-08-24T12:57:02.495Z,45.93
2022-08-24T12:59:26.911Z,46.26
2022-08-24T13:01:53.346Z,46.71
2022-08-24T13:04:19.680Z,47.07
2022-08-24T13:06:46.070Z,47.18
2022-08-24T13:09:12.439Z,47.43
2022-08-24T13:11:38.837Z,47.58
2022-08-24T13:14:05.220Z,47.83
2022-08-24T13:16:31.730Z,47.68
2022-08-24T13:18:58.021Z,47.78
2022-08-24T13:21:24.393Z,48.22
2022-08-24T13:23:50.759Z,48.95
2022-08-24T13:26:17.131Z,48.99
2022-08-24T13:28:43.506Z,49.15
2022-08-24T13:31:09.947Z,49.26
2022-08-24T13:33:36.243Z,49.29
2022-08-24T13:36:02.627Z,49.34
2022-08-24T13:38:28.988Z,49.08
2022-08-24T13:40:55.404Z,49.24
2022-08-24T13:43:21.783Z,49.10
2022-08-24T13:45:48.169Z,49.41
2022-08-24T13:48:14.534Z,49.29
2022-08-24T13:50:41.008Z,49.35
2022-08-24T13:53:07.438Z,49.28
2022-08-24T13:55:33.866Z,49.52
2022-08-24T13:58:00.289Z,49.78
2022-08-24T14:00:26.636Z,49.98
2022-08-24T14:02:53.021Z,50.05
2022-08-24T14:05:19.416Z,50.05
2022-08-24T14:07:45.763Z,49.08
2022-08-24T14:10:12.164Z,49.53
2022-08-24T14:12:38.535Z,50.24
2022-08-24T14:15:05.029Z,50.27
2022-08-24T14:17:35.649Z,50.35
2022-08-24T14:19:57.858Z,50.47
2022-08-24T14:22:24.329Z,50.63
2022-08-24T14:24:50.702Z,50.68
2022-08-24T14:27:17.083Z,50.58
2022-08-24T14:29:43.482Z,50.73
2022-08-24T14:32:12.522Z,50.98
2022-08-24T14:34:36.294Z,51.00
2022-08-24T14:37:02.698Z,51.33
2022-08-24T14:39:29.069Z,51.51
2022-08-24T14:41:55.434Z,51.43
2022-08-24T14:44:21.858Z,51.53
2022-08-24T14:46:48.278Z,51.65
2022-08-24T14:49:14.626Z,51.95
2022-08-24T14:51:41.037Z,51.92
2022-08-24T14:54:07.403Z,51.89
2022-08-24T14:56:33.785Z,51.95
2022-08-24T14:59:00.176Z,52.12
2022-08-24T15:01:26.594Z,52.29
2022-08-24T15:03:52.992Z,52.32
2022-08-24T15:06:26.811Z,53.22
2022-08-24T15:08:45.732Z,53.67
2022-08-24T15:11:12.113Z,53.86
2022-08-24T15:13:38.481Z,54.73
2022-08-24T15:16:04.997Z,55.34
2022-08-24T15:18:36.209Z,54.01
2022-08-24T15:20:57.753Z,55.25
2022-08-24T15:23:24.146Z,55.58
2022-08-24T15:25:50.538Z,55.21
2022-08-24T15:28:16.906Z,55.11
2022-08-24T15:30:43.345Z,54.99
2022-08-24T15:33:09.716Z,55.03
2022-08-24T15:35:36.214Z,55.27
2022-08-24T15:38:02.716Z,55.61
2022-08-24T15:40:29.025Z,56.15
2022-08-24T15:42:55.406Z,56.29
2022-08-24T15:45:21.824Z,56.17
2022-08-24T15:47:51.753Z,55.91
2022-08-24T15:50:14.797Z,57.13
2022-08-24T15:52:41.197Z,57.17
2022-08-24T15:55:07.588Z,57.73
2022-08-24T15:57:33.990Z,58.04
2022-08-24T16:00:00.559Z,58.51
2022-08-24T16:02:26.967Z,59.14
2022-08-24T16:04:53.253Z,59.66
2022-08-24T16:07:19.668Z,60.06
2022-08-24T16:09:46.050Z,60.27
2022-08-24T16:12:12.833Z,60.36
2022-08-24T16:14:38.832Z,60.27
2022-08-24T16:17:05.280Z,60.27
2022-08-24T16:19:31.582Z,60.51
2022-08-24T16:21:58.514Z,60.48
2022-08-24T16:24:24.417Z,60.03
2022-08-24T16:26:50.826Z,60.70
2022-08-24T16:29:17.224Z,60.66
2022-08-24T16:31:43.641Z,60.84
2022-08-24T16:34:10.026Z,60.48
2022-08-24T16:36:36.410Z,60.57
2022-08-24T16:39:02.775Z,60.88
2022-08-24T16:41:29.162Z,60.87
2022-08-24T16:43:55.581Z,61.12
2022-08-24T16:46:22.012Z,61.53
2022-08-24T16:48:48.351Z,61.17
2022-08-24T16:51:14.844Z,61.06
2022-08-24T16:53:41.225Z,61.40
2022-08-24T16:56:07.619Z,61.32
2022-08-24T16:58:34.017Z,61.65
2022-08-24T17:01:00.483Z,61.75
2022-08-24T17:03:26.773Z,61.11
2022-08-24T17:05:53.208Z,60.86
2022-08-24T17:08:19.608Z,61.32
2022-08-24T17:10:46.051Z,61.26
2022-08-24T17:13:16.588Z,61.40
2022-08-24T17:15:38.866Z,61.64
2022-08-24T17:18:05.405Z,61.53
2022-08-24T17:20:31.664Z,62.16
2022-08-24T17:22:58.041Z,62.00
2022-08-24T17:25:24.453Z,62.20
2022-08-24T17:27:50.811Z,62.03
2022-08-24T17:30:17.217Z,62.24
2022-08-24T17:32:43.623Z,62.50
2022-08-24T17:35:09.990Z,62.80
2022-08-24T17:37:36.643Z,62.81
2022-08-24T17:40:03.101Z,62.61
2022-08-24T17:42:49.516Z,62.98
2022-08-24T17:44:55.919Z,63.32
2022-08-24T17:47:22.290Z,63.36
2022-08-24T17:49:48.661Z,63.52
2022-08-24T17:52:15.026Z,63.76
2022-08-24T17:54:41.404Z,64.10
2022-08-24T17:57:07.786Z,64.26
2022-08-24T17:59:34.172Z,64.59
2022-08-24T18:02:00.561Z,65.09
2022-08-24T18:04:26.993Z,64.98
2022-08-24T18:06:53.351Z,65.42
2022-08-24T18:09:19.721Z,65.33
2022-08-24T18:11:46.176Z,65.11
2022-08-24T18:14:12.602Z,65.06
2022-08-24T18:16:39.064Z,65.12
2022-08-24T18:19:05.337Z,65.37
2022-08-24T18:21:31.738Z,65.57
2022-08-24T18:23:58.149Z,66.04
2022-08-24T18:26:28.127Z,66.16
2022-08-24T18:28:50.893Z,66.29
2022-08-24T18:31:17.331Z,66.38
2022-08-24T18:33:43.642Z,66.39
2022-08-24T18:36:10.008Z,66.67
2022-08-24T18:38:36.422Z,66.70
2022-08-24T18:41:02.936Z,67.20
2022-08-24T18:43:29.301Z,67.29
2022-08-24T18:45:55.752Z,67.32
2022-08-24T18:48:22.090Z,67.79
2022-08-24T18:50:48.473Z,68.06
2022-08-24T18:53:14.910Z,68.02
2022-08-24T18:55:41.295Z,67.90
2022-08-24T18:58:07.802Z,67.52
2022-08-24T19:00:34.309Z,67.38
2022-08-24T19:03:00.605Z,67.30
2022-08-24T19:05:26.980Z,67.95
2022-08-24T19:07:53.352Z,68.49
2022-08-24T19:10:19.706Z,68.65
2022-08-24T19:12:46.926Z,68.64
2022-08-24T19:15:31.979Z,68.72
2022-08-24T19:17:38.880Z,68.71
2022-08-24T19:20:05.252Z,68.52
2022-08-24T19:22:31.655Z,68.70
2022-08-24T19:24:58.038Z,69.03
2022-08-24T19:27:24.401Z,69.19
2022-08-24T19:29:57.977Z,69.05
2022-08-24T19:32:21.934Z,69.26
2022-08-24T19:34:43.549Z,69.14
2022-08-24T19:37:09.941Z,68.87
2022-08-24T19:39:36.428Z,69.35
2022-08-24T19:42:02.858Z,69.71
2022-08-24T19:44:29.474Z,70.06
2022-08-24T19:46:55.969Z,69.98
2022-08-24T19:49:22.475Z,69.85
2022-08-24T19:51:48.853Z,70.14
2022-08-24T19:54:15.248Z,70.71
2022-08-24T19:56:41.668Z,71.13
2022-08-24T19:59:08.054Z,70.93
2022-08-24T20:01:34.642Z,71.05
2022-08-24T20:04:00.868Z,71.17
2022-08-24T20:06:27.249Z,71.55
2022-08-24T20:08:53.622Z,71.40
2022-08-24T20:11:20.060Z,71.59
2022-08-24T20:13:46.423Z,71.57
2022-08-24T20:16:12.886Z,71.60
2022-08-24T20:18:39.210Z,71.69
2022-08-24T20:21:05.599Z,71.96
2022-08-24T20:23:32.022Z,71.91
2022-08-24T20:25:58.385Z,73.08
2022-08-24T20:28:29.236Z,72.93
2022-08-24T20:30:51.185Z,72.61
2022-08-24T20:33:17.548Z,72.47
2022-08-24T20:35:43.954Z,72.94
2022-08-24T20:38:10.341Z,73.31
2022-08-24T20:40:36.713Z,73.10
2022-08-24T20:43:03.250Z,73.10
2022-08-24T20:45:29.479Z,73.04
2022-08-24T20:47:55.939Z,73.11
2022-08-24T20:50:22.318Z,73.33
2022-08-24T20:52:48.680Z,73.71
2022-08-24T20:55:15.045Z,74.16
2022-08-24T20:57:41.569Z,74.54
2022-08-24T21:00:08.037Z,74.47
2022-08-24T21:02:34.366Z,74.70
2022-08-24T21:05:00.740Z,74.73
2022-08-24T21:07:27.124Z,74.61
2022-08-24T21:09:53.492Z,74.44
2022-08-24T21:12:20.022Z,74.66
2022-08-24T21:14:46.389Z,74.64
2022-08-24T21:17:12.832Z,74.40
2022-08-24T21:19:39.263Z,74.74
2022-08-24T21:22:05.630Z,74.36
2022-08-24T21:24:31.993Z,73.23
2022-08-24T21:26:58.393Z,73.65
2022-08-24T21:29:24.785Z,73.80
2022-08-24T21:31:51.272Z,73.42
2022-08-24T21:34:17.606Z,73.96
2022-08-24T21:36:43.986Z,74.19
2022-08-24T21:39:11.213Z,74.48
2022-08-24T21:41:36.788Z,74.58
2022-08-24T21:44:03.175Z,73.92
2022-08-24T21:46:29.658Z,74.13
2022-08-24T21:48:56.050Z,74.34
2022-08-24T21:51:22.423Z,74.86
2022-08-24T21:53:48.827Z,74.75
2022-08-24T21:56:15.221Z,74.64
2022-08-24T21:58:41.678Z,74.65
2022-08-24T22:01:08.063Z,74.77
2022-08-24T22:03:40.035Z,74.79
2022-08-24T22:06:00.978Z,74.71
2022-08-24T22:08:27.937Z,74.75
2022-08-24T22:10:53.845Z,75.05
2022-08-24T22:13:20.207Z,75.32
2022-08-24T22:15:46.631Z,75.54
2022-08-24T22:18:12.993Z,75.83
2022-08-24T22:20:39.384Z,76.26
2022-08-24T22:23:05.900Z,76.10
2022-08-24T22:25:32.230Z,76.30
2022-08-24T22:27:58.624Z,76.19
2022-08-24T22:30:24.989Z,75.98
2022-08-24T22:32:51.356Z,76.18
2022-08-24T22:35:17.729Z,76.32
2022-08-24T22:37:44.094Z,76.12
2022-08-24T22:40:12.679Z,76.02
2022-08-24T22:42:36.951Z,76.27
2022-08-24T22:45:03.390Z,76.44
2022-08-24T22:47:29.750Z,76.45
2022-08-24T22:49:56.261Z,76.40
2022-08-24T22:52:22.694Z,76.51
2022-08-24T22:54:49.140Z,76.46
2022-08-24T22:57:15.636Z,76.49
2022-08-24T22:59:41.922Z,76.56
2022-08-24T23:02:08.333Z,76.52
2022-08-24T23:04:34.685Z,76.68
2022-08-24T23:07:01.066Z,76.93
2022-08-24T23:09:27.459Z,77.00
2022-08-24T23:11:53.846Z,77.45
2022-08-24T23:14:20.219Z,77.59
2022-08-24T23:16:46.584Z,77.43
2022-08-24T23:19:13.046Z,77.07
2022-08-24T23:21:39.417Z,77.41
2022-08-24T23:24:05.805Z,77.35
2022-08-24T23:26:32.245Z,77.30
2022-08-24T23:28:58.679Z,77.53
2022-08-24T23:31:25.138Z,77.46
2022-08-24T23:33:51.461Z,77.59
2022-08-24T23:36:17.849Z,77.66
2022-08-24T23:38:44.316Z,77.91
2022-08-24T23:41:10.669Z,77.84
2022-08-24T23:43:37.062Z,77.96
2022-08-24T23:46:03.486Z,78.06
2022-08-24T23:48:29.938Z,77.78
2022-08-24T23:50:56.364Z,78.18
2022-08-24T23:53:22.753Z,78.31
2022-08-24T23:55:49.135Z,78.33
2022-08-24T23:58:15.503Z,78.44
